Time;durP1;ratioP1;P1;durP2;ratioP2;P2;SDS_P1;SDS_P2;PMS_P1;PMS_P2;Temp;Humidity;BMP_temperature;BMP_pressure;BME280_temperature;BME280_humidity;BME280_pressure;Samples;Min_cycle;Max_cycle;Signal;HPM_P1;HPM_P2
2022/04/09 00:00:52;;;;;;;21.10;9.50;;;;;;;4.58;95.52;97274.65;103552;1300;24213;-29
2022/04/09 00:03:18;;;;;;;15.20;7.80;;;;;;;4.58;95.44;97269.44;103496;1300;24230;-25
2022/04/09 00:05:44;;;;;;;15.40;9.30;;;;;;;4.58;95.45;97262.27;103567;1300;23900;-25
2022/04/09 00:08:09;;;;;;;5.10;3.90;;;;;;;4.58;95.78;97257.48;103573;1300;24138;-25
2022/04/09 00:10:35;;;;;;;3.90;3.30;;;;;;;4.59;95.89;97258.66;103557;1300;24357;-25
2022/04/09 00:13:01;;;;;;;7.80;5.80;;;;;;;4.59;96.15;97260.42;103401;1301;22608;-24
2022/04/09 00:15:26;;;;;;;9.10;6.50;;;;;;;4.57;95.96;97255.77;103544;1300;24238;-30
2022/04/09 00:17:52;;;;;;;7.60;5.10;;;;;;;4.54;96.04;97253.58;103495;1300;23431;-33
2022/04/09 00:20:18;;;;;;;6.60;4.40;;;;;;;4.52;96.35;97254.02;103519;1300;24437;-26
2022/04/09 00:22:44;;;;;;;4.70;3.30;;;;;;;4.49;96.72;97249.05;103510;1300;24673;-29
2022/04/09 00:25:12;;;;;;;5.90;4.20;;;;;;;4.49;96.71;97249.33;103514;1300;24246;-25
2022/04/09 00:27:38;;;;;;;5.60;4.10;;;;;;;4.44;96.60;97251.67;103616;1300;24215;-25
2022/04/09 00:30:05;;;;;;;5.50;3.60;;;;;;;4.44;96.82;97251.89;103558;1300;24218;-25
2022/04/09 00:32:31;;;;;;;4.60;3.10;;;;;;;4.43;96.81;97260.60;103581;1300;24247;-25
2022/04/09 00:34:56;;;;;;;5.30;2.00;;;;;;;4.32;97.10;97265.46;103621;1300;23811;-25
2022/04/09 00:37:22;;;;;;;5.10;3.60;;;;;;;4.34;97.53;97258.83;103535;1300;24195;-25
2022/04/09 00:39:48;;;;;;;4.70;2.90;;;;;;;4.34;97.70;97249.14;103563;1300;24267;-26
2022/04/09 00:42:14;;;;;;;6.00;4.20;;;;;;;4.39;97.15;97242.38;103521;1300;24237;-26
2022/04/09 00:44:40;;;;;;;8.90;4.80;;;;;;;4.42;96.82;97238.40;103311;1300;23601;-29
2022/04/09 00:47:07;;;;;;;5.70;4.70;;;;;;;4.38;96.83;97225.82;103552;1300;25236;-28
2022/04/09 00:49:33;;;;;;;5.10;3.40;;;;;;;4.36;97.10;97229.06;103620;1300;24252;-29
2022/04/09 00:52:00;;;;;;;6.80;4.40;;;;;;;4.40;96.82;97219.64;103610;1300;24391;-29
2022/04/09 00:54:25;;;;;;;8.50;4.10;;;;;;;4.36;96.60;97206.24;103559;1300;22502;-31
2022/04/09 00:56:51;;;;;;;3.90;2.60;;;;;;;4.36;96.99;97198.60;103501;1300;24237;-30
2022/04/09 00:59:17;;;;;;;5.30;3.50;;;;;;;4.39;96.70;97196.46;103447;1301;24214;-25
2022/04/09 01:01:43;;;;;;;4.40;3.20;;;;;;;4.38;96.72;97193.31;103557;1300;23651;-29
2022/04/09 01:04:11;;;;;;;3.00;2.50;;;;;;;4.40;96.54;97185.63;103544;1300;24218;-29
2022/04/09 01:06:37;;;;;;;7.90;3.00;;;;;;;4.41;96.58;97178.05;103558;1300;24260;-29
2022/04/09 01:09:03;;;;;;;4.00;3.10;;;;;;;4.42;96.33;97192.69;103577;1300;23355;-25
2022/04/09 01:11:29;;;;;;;3.30;2.60;;;;;;;4.44;96.63;97212.42;103525;1300;24202;-29
2022/04/09 01:13:54;;;;;;;9.40;4.00;;;;;;;4.45;96.83;97219.16;103568;1300;22508;-26
2022/04/09 01:16:22;;;;;;;6.80;3.10;;;;;;;4.49;96.55;97202.84;103528;1300;24213;-25
2022/04/09 01:18:48;;;;;;;4.00;3.00;;;;;;;4.46;96.19;97190.14;103615;1300;24311;-29
2022/04/09 01:21:14;;;;;;;3.10;2.40;;;;;;;4.43;96.12;97191.38;103520;1300;24237;-29
2022/04/09 01:23:39;;;;;;;4.40;2.80;;;;;;;4.42;96.14;97192.23;103555;1300;24229;-29
2022/04/09 01:26:06;;;;;;;3.30;2.30;;;;;;;4.38;96.16;97189.27;103593;1300;23769;-25
2022/04/09 01:28:32;;;;;;;3.10;2.60;;;;;;;4.42;96.62;97207.48;103578;1300;24256;-28
2022/04/09 01:30:57;;;;;;;8.10;7.30;;;;;;;4.44;96.69;97220.56;103657;1300;24214;-31
2022/04/09 01:33:23;;;;;;;8.50;5.70;;;;;;;4.36;96.71;97206.20;103577;1300;22508;-31
2022/04/09 01:35:50;;;;;;;6.00;5.30;;;;;;;4.31;97.49;97190.82;103563;1300;24333;-31
2022/04/09 01:38:15;;;;;;;9.90;7.70;;;;;;;4.32;97.89;97191.79;103579;1300;24324;-25
2022/04/09 01:40:41;;;;;;;6.50;5.90;;;;;;;4.30;98.33;97202.72;103559;1300;24408;-25
2022/04/09 01:43:07;;;;;;;6.90;3.90;;;;;;;4.29;98.29;97205.73;103529;1300;24443;-24
2022/04/09 01:45:34;;;;;;;5.20;4.10;;;;;;;4.19;99.55;97204.42;103563;1300;24288;-31
2022/04/09 01:48:00;;;;;;;8.00;4.40;;;;;;;4.16;99.98;97206.11;103554;1300;25162;-25
2022/04/09 01:50:26;;;;;;;10.10;5.80;;;;;;;4.23;99.76;97210.02;103537;1301;23658;-24
2022/04/09 01:52:52;;;;;;;5.80;4.80;;;;;;;4.27;99.44;97210.70;103579;1300;24248;-26
2022/04/09 01:55:18;;;;;;;7.60;5.70;;;;;;;4.23;99.68;97204.13;103557;1300;24359;-25
2022/04/09 01:57:45;;;;;;;6.80;2.80;;;;;;;4.26;99.25;97201.09;103522;1300;22506;-31
2022/04/09 02:00:12;;;;;;;3.20;2.50;;;;;;;4.29;98.81;97206.56;103581;1300;23598;-32
2022/04/09 02:02:38;;;;;;;5.70;4.20;;;;;;;4.23;99.11;97213.33;103597;1300;24249;-25
2022/04/09 02:05:05;;;;;;;5.00;3.70;;;;;;;4.17;100.00;97211.06;103558;1300;24279;-29
2022/04/09 02:07:31;;;;;;;3.80;2.70;;;;;;;4.12;100.00;97210.63;103456;1302;23527;-27
2022/04/09 02:09:57;;;;;;;4.10;3.70;;;;;;;4.00;100.00;97217.04;103515;1300;22524;-28
2022/04/09 02:12:23;;;;;;;4.60;2.70;;;;;;;3.99;100.00;97226.48;103526;1300;24315;-28
2022/04/09 02:14:49;;;;;;;15.10;3.30;;;;;;;4.00;100.00;97233.30;103543;1300;22517;-25
2022/04/09 02:17:15;;;;;;;4.60;3.40;;;;;;;4.02;100.00;97233.09;103509;1300;24220;-26
2022/04/09 02:19:40;;;;;;;3.90;3.40;;;;;;;4.03;100.00;97235.55;103616;1300;24389;-29
2022/04/09 02:22:06;;;;;;;5.30;3.80;;;;;;;4.01;100.00;97236.48;103501;1300;23610;-29
2022/04/09 02:24:32;;;;;;;4.30;2.70;;;;;;;3.99;100.00;97231.09;103563;1300;24272;-32
2022/04/09 02:26:58;;;;;;;5.20;2.80;;;;;;;3.98;100.00;97234.45;103540;1300;24419;-25
2022/04/09 02:29:24;;;;;;;7.10;3.60;;;;;;;3.97;100.00;97239.39;103554;1300;24202;-30
2022/04/09 02:31:50;;;;;;;7.80;3.20;;;;;;;3.98;100.00;97261.38;103512;1300;25337;-25
2022/04/09 02:34:16;;;;;;;5.70;4.70;;;;;;;3.98;100.00;97270.08;103571;1300;23597;-25
2022/04/09 02:36:41;;;;;;;6.90;4.20;;;;;;;3.97;100.00;97266.98;103534;1300;22630;-27
2022/04/09 02:39:07;;;;;;;4.60;3.50;;;;;;;3.93;100.00;97267.46;103576;1300;24251;-25
2022/04/09 02:41:33;;;;;;;6.70;3.90;;;;;;;3.94;100.00;97268.48;103519;1300;24317;-24
2022/04/09 02:43:59;;;;;;;5.90;4.10;;;;;;;3.81;100.00;97259.39;103545;1300;24649;-27
2022/04/09 02:46:25;;;;;;;7.10;4.80;;;;;;;3.70;100.00;97260.88;103533;1300;24279;-29
2022/04/09 02:48:51;;;;;;;5.90;4.50;;;;;;;3.66;100.00;97264.67;103607;1300;24249;-32
2022/04/09 02:51:17;;;;;;;8.50;5.20;;;;;;;3.69;100.00;97269.85;103537;1300;24216;-27
2022/04/09 02:53:44;;;;;;;6.60;4.70;;;;;;;3.77;100.00;97272.87;103515;1300;24249;-25
2022/04/09 02:56:10;;;;;;;6.00;3.70;;;;;;;3.77;100.00;97278.23;103566;1300;24241;-29
2022/04/09 02:58:36;;;;;;;7.80;4.00;;;;;;;3.66;100.00;97283.95;103586;1300;22503;-31
2022/04/09 03:01:02;;;;;;;5.30;4.30;;;;;;;3.67;100.00;97285.55;103602;1300;23638;-31
2022/04/09 03:03:27;;;;;;;3.30;2.20;;;;;;;3.61;100.00;97280.67;103600;1300;24292;-27
2022/04/09 03:05:53;;;;;;;5.10;2.70;;;;;;;3.51;100.00;97283.70;103554;1300;24315;-30
2022/04/09 03:08:19;;;;;;;4.80;4.00;;;;;;;3.48;100.00;97280.95;103562;1300;24249;-30
2022/04/09 03:10:45;;;;;;;7.60;3.50;;;;;;;3.46;100.00;97285.40;103537;1300;23602;-24
2022/04/09 03:13:10;;;;;;;4.40;3.00;;;;;;;3.48;100.00;97294.89;103571;1300;23431;-25
2022/04/09 03:15:36;;;;;;;4.90;2.20;;;;;;;3.42;100.00;97294.23;103597;1300;24384;-32
2022/04/09 03:18:02;;;;;;;6.70;4.60;;;;;;;3.42;100.00;97294.84;103475;1300;24271;-27
2022/04/09 03:20:28;;;;;;;4.40;3.90;;;;;;;3.38;100.00;97296.26;103564;1300;24221;-25
2022/04/09 03:22:54;;;;;;;4.60;3.90;;;;;;;3.36;100.00;97293.04;103502;1300;24253;-26
2022/04/09 03:25:20;;;;;;;9.20;4.70;;;;;;;3.27;100.00;97286.86;103520;1300;24065;-29
2022/04/09 03:27:46;;;;;;;5.40;3.40;;;;;;;3.25;100.00;97280.65;103567;1300;24333;-28
2022/04/09 03:30:12;;;;;;;5.30;3.60;;;;;;;3.14;100.00;97270.11;103523;1300;24370;-27
2022/04/09 03:32:38;;;;;;;4.80;3.00;;;;;;;3.08;100.00;97264.02;103448;1302;24308;-29
2022/04/09 03:35:05;;;;;;;11.10;4.30;;;;;;;3.14;100.00;97261.09;103602;1300;24213;-27
2022/04/09 03:37:33;;;;;;;2.30;1.70;;;;;;;3.04;100.00;97251.92;103546;1300;22527;-29
2022/04/09 03:39:59;;;;;;;6.80;3.50;;;;;;;3.03;100.00;97250.05;103521;1300;23917;-30
2022/04/09 03:42:25;;;;;;;6.00;3.60;;;;;;;2.96;100.00;97249.59;103577;1300;22500;-25
2022/04/09 03:44:50;;;;;;;4.20;3.20;;;;;;;2.96;100.00;97244.99;103524;1300;24306;-32
2022/04/09 03:47:16;;;;;;;3.40;2.70;;;;;;;2.90;100.00;97248.69;103540;1300;24343;-24
2022/04/09 03:49:42;;;;;;;4.10;3.00;;;;;;;2.91;100.00;97254.72;103539;1300;24377;-26
2022/04/09 03:52:07;;;;;;;3.60;2.70;;;;;;;2.85;100.00;97270.00;103574;1300;24433;-27
2022/04/09 03:54:35;;;;;;;6.70;3.60;;;;;;;2.81;100.00;97272.63;103544;1300;24249;-26
2022/04/09 03:57:03;;;;;;;4.00;3.00;;;;;;;2.76;100.00;97271.16;103557;1300;24073;-30
2022/04/09 03:59:28;;;;;;;1.20;1.00;;;;;;;2.71;100.00;97279.88;103591;1300;24218;-25
2022/04/09 04:01:54;;;;;;;4.60;2.50;;;;;;;2.65;100.00;97287.27;103505;1300;24220;-25
2022/04/09 04:04:21;;;;;;;2.10;1.30;;;;;;;2.75;100.00;97288.04;103422;1300;24220;-30
2022/04/09 04:06:48;;;;;;;2.10;1.60;;;;;;;2.55;100.00;97290.32;103600;1300;23751;-30
2022/04/09 04:09:16;;;;;;;3.50;2.90;;;;;;;2.50;100.00;97293.36;103604;1300;23813;-29
2022/04/09 04:11:43;;;;;;;3.60;2.50;;;;;;;2.55;100.00;97310.02;103572;1300;24099;-30
2022/04/09 04:14:10;;;;;;;3.20;1.20;;;;;;;2.54;100.00;97315.11;103256;1300;403187;-31
2022/04/09 04:16:36;;;;;;;3.00;2.60;;;;;;;2.45;100.00;97322.48;103549;1300;24241;-24
2022/04/09 04:19:01;;;;;;;2.70;1.20;;;;;;;2.56;100.00;97331.21;103574;1300;24248;-31
2022/04/09 04:21:27;;;;;;;2.40;1.40;;;;;;;2.31;100.00;97344.89;103564;1300;22587;-31
2022/04/09 04:23:55;;;;;;;2.80;1.70;;;;;;;2.30;100.00;97360.45;103561;1300;24318;-30
2022/04/09 04:26:20;;;;;;;3.50;2.40;;;;;;;2.39;100.00;97370.98;103578;1300;22659;-32
2022/04/09 04:31:16;;;;;;;1.90;0.90;;;;;;;2.17;100.00;97389.22;103603;1300;22499;-25
2022/04/09 04:33:42;;;;;;;6.30;2.30;;;;;;;2.25;100.00;97386.95;103571;1300;23537;-25
2022/04/09 04:36:07;;;;;;;1.20;0.90;;;;;;;2.21;100.00;97394.86;103594;1300;23517;-26
2022/04/09 04:38:33;;;;;;;4.20;2.60;;;;;;;2.08;100.00;97399.08;103577;1300;23987;-31
2022/04/09 04:41:01;;;;;;;3.20;1.60;;;;;;;2.22;100.00;97397.94;103540;1300;24336;-31
2022/04/09 04:43:27;;;;;;;2.70;2.00;;;;;;;2.08;100.00;97399.86;103618;1300;24252;-29
2022/04/09 04:45:52;;;;;;;3.10;2.60;;;;;;;2.10;100.00;97402.81;103567;1300;24225;-29
2022/04/09 04:48:20;;;;;;;2.70;1.90;;;;;;;2.13;100.00;97407.92;103394;1301;24369;-30
2022/04/09 04:50:46;;;;;;;4.00;3.00;;;;;;;2.03;100.00;97405.29;103618;1300;22841;-30
2022/04/09 04:53:12;;;;;;;6.30;3.20;;;;;;;2.10;100.00;97415.35;103556;1300;24374;-30
2022/04/09 04:55:38;;;;;;;3.00;2.50;;;;;;;2.05;100.00;97421.64;103615;1300;24216;-30
2022/04/09 04:58:04;;;;;;;5.80;3.30;;;;;;;2.02;100.00;97428.20;103551;1300;22503;-29
2022/04/09 05:00:30;;;;;;;2.70;0.90;;;;;;;2.16;100.00;97432.77;103551;1300;24010;-30
2022/04/09 05:02:56;;;;;;;6.90;3.30;;;;;;;2.12;100.00;97437.05;103566;1300;23707;-25
2022/04/09 05:05:22;;;;;;;4.00;3.30;;;;;;;2.22;100.00;97445.92;103514;1299;24218;-26
2022/04/09 05:07:49;;;;;;;4.60;3.20;;;;;;;2.24;100.00;97455.96;103577;1300;23758;-30
2022/04/09 05:10:16;;;;;;;4.80;3.50;;;;;;;2.10;100.00;97456.05;103514;1300;24894;-26
2022/04/09 05:12:42;;;;;;;4.90;3.50;;;;;;;2.20;100.00;97462.46;103510;1300;23950;-29
2022/04/09 05:15:09;;;;;;;4.30;2.80;;;;;;;2.21;100.00;97466.57;103411;1300;24285;-26
2022/04/09 05:17:35;;;;;;;5.90;3.00;;;;;;;2.18;100.00;97467.61;103569;1300;22643;-30
2022/04/09 05:20:03;;;;;;;4.80;3.60;;;;;;;2.16;100.00;97474.56;103592;1300;24359;-30
2022/04/09 05:22:30;;;;;;;3.40;2.60;;;;;;;2.20;100.00;97477.83;103535;1300;24226;-26
2022/04/09 05:24:58;;;;;;;5.70;2.70;;;;;;;2.16;100.00;97495.53;103610;1300;24338;-31
2022/04/09 05:27:23;;;;;;;2.60;1.70;;;;;;;2.17;100.00;97498.20;103589;1300;24217;-25
2022/04/09 05:29:50;;;;;;;3.00;2.20;;;;;;;2.11;100.00;97499.98;103573;1300;24216;-30
2022/04/09 05:32:16;;;;;;;4.60;3.40;;;;;;;2.07;100.00;97507.02;103593;1300;23601;-30
2022/04/09 05:34:42;;;;;;;3.90;3.10;;;;;;;2.11;100.00;97520.79;103535;1300;24220;-29
2022/04/09 05:37:08;;;;;;;4.20;3.00;;;;;;;2.24;100.00;97528.87;103533;1300;24280;-31
2022/04/09 05:39:34;;;;;;;5.60;3.50;;;;;;;2.26;100.00;97528.08;103539;1300;24253;-31
2022/04/09 05:42:01;;;;;;;4.90;2.70;;;;;;;2.31;100.00;97529.23;103505;1302;23515;-30
2022/04/09 05:44:26;;;;;;;4.70;3.50;;;;;;;2.45;100.00;97531.49;103519;1300;24279;-27
2022/04/09 05:46:52;;;;;;;4.10;2.90;;;;;;;2.48;100.00;97543.56;103560;1300;22503;-29
2022/04/09 05:49:20;;;;;;;11.50;4.00;;;;;;;2.56;100.00;97548.23;103456;1300;24249;-25
2022/04/09 05:51:48;;;;;;;6.00;3.50;;;;;;;2.65;100.00;97550.26;103577;1300;24244;-29
2022/04/09 05:54:13;;;;;;;4.80;3.70;;;;;;;2.77;100.00;97548.95;103593;1300;24263;-27
2022/04/09 05:56:39;;;;;;;3.80;3.20;;;;;;;2.84;100.00;97553.98;103570;1300;24720;-25
2022/04/09 05:59:05;;;;;;;4.80;3.10;;;;;;;3.00;100.00;97564.84;103601;1300;22501;-29
2022/04/09 06:01:31;;;;;;;4.40;3.10;;;;;;;3.02;100.00;97576.31;103543;1300;24368;-25
2022/04/09 06:03:57;;;;;;;5.40;4.30;;;;;;;3.00;100.00;97594.06;103535;1300;23586;-31
2022/04/09 06:06:23;;;;;;;4.10;3.60;;;;;;;3.13;100.00;97600.02;103571;1300;24301;-29
2022/04/09 06:08:49;;;;;;;4.30;3.30;;;;;;;3.21;99.82;97600.92;103524;1300;24304;-26
2022/04/09 06:11:15;;;;;;;4.20;3.60;;;;;;;3.13;99.72;97606.27;103522;1300;24468;-29
2022/04/09 06:13:41;;;;;;;7.00;4.00;;;;;;;3.35;99.34;97607.42;103576;1300;24241;-25
2022/04/09 06:16:08;;;;;;;5.80;2.30;;;;;;;3.32;98.70;97617.41;103554;1300;23584;-28
2022/04/09 06:18:38;;;;;;;6.90;3.10;;;;;;;3.30;98.54;97617.45;103593;1300;24202;-24
2022/04/09 06:21:05;;;;;;;3.20;2.10;;;;;;;3.23;97.92;97626.63;103500;1300;24357;-25
2022/04/09 06:23:31;;;;;;;4.00;2.00;;;;;;;3.31;98.11;97639.48;103581;1300;24241;-24
2022/04/09 06:25:58;;;;;;;14.00;5.10;;;;;;;3.36;97.14;97642.38;103556;1300;24355;-29
2022/04/09 06:28:24;;;;;;;3.90;1.90;;;;;;;3.43;96.68;97646.63;103573;1300;24327;-26
2022/04/09 06:30:51;;;;;;;3.40;2.10;;;;;;;3.35;96.59;97650.05;103573;1300;24351;-26
2022/04/09 06:33:16;;;;;;;8.30;3.70;;;;;;;3.28;97.51;97656.56;103516;1300;24362;-25
2022/04/09 06:35:42;;;;;;;3.90;3.20;;;;;;;3.56;96.00;97663.13;103534;1302;24212;-25
2022/04/09 06:38:08;;;;;;;4.10;3.10;;;;;;;3.41;96.92;97675.92;103536;1300;24260;-31
2022/04/09 06:40:34;;;;;;;2.70;2.40;;;;;;;3.49;96.71;97686.20;103562;1300;23876;-25
2022/04/09 06:42:59;;;;;;;3.20;2.80;;;;;;;3.54;95.72;97698.16;103395;1301;22598;-29
2022/04/09 06:45:25;;;;;;;9.30;4.20;;;;;;;3.55;95.81;97704.34;103526;1300;23600;-25
2022/04/09 06:47:51;;;;;;;3.60;2.60;;;;;;;3.78;94.93;97707.17;103557;1300;24214;-28
2022/04/09 06:50:17;;;;;;;3.20;2.20;;;;;;;3.74;94.59;97712.22;103622;1300;24285;-27
2022/04/09 06:52:42;;;;;;;14.90;4.30;;;;;;;3.89;93.81;97716.47;103549;1300;23607;-31
2022/04/09 06:55:09;;;;;;;9.20;5.00;;;;;;;3.95;93.07;97725.34;103527;1300;23961;-29
2022/04/09 06:57:36;;;;;;;3.80;2.90;;;;;;;3.63;94.60;97737.02;103588;1300;23889;-27
2022/04/09 07:00:03;;;;;;;8.40;3.50;;;;;;;3.69;95.80;97743.23;103301;1302;24252;-25
2022/04/09 07:02:28;;;;;;;5.50;2.30;;;;;;;3.78;95.58;97754.80;103582;1300;24407;-25
2022/04/09 07:04:54;;;;;;;3.10;1.90;;;;;;;3.94;95.20;97767.25;103615;1300;23599;-27
2022/04/09 07:07:21;;;;;;;3.30;2.90;;;;;;;4.12;93.41;97776.64;103495;1300;23807;-25
2022/04/09 07:09:46;;;;;;;4.60;3.60;;;;;;;4.14;92.70;97789.06;103588;1300;22587;-25
2022/04/09 07:12:13;;;;;;;4.20;3.60;;;;;;;4.19;92.59;97798.23;103560;1300;22612;-27
2022/04/09 07:14:39;;;;;;;2.40;2.20;;;;;;;4.31;92.10;97807.82;103516;1300;24337;-29
2022/04/09 07:17:05;;;;;;;3.80;3.50;;;;;;;4.25;92.88;97813.27;103503;1301;23553;-30
2022/04/09 07:19:31;;;;;;;6.60;3.70;;;;;;;4.53;91.55;97828.13;103571;1300;24333;-25
2022/04/09 07:21:58;;;;;;;5.90;3.50;;;;;;;4.73;89.81;97832.79;103578;1300;24225;-27
2022/04/09 07:24:23;;;;;;;3.30;2.40;;;;;;;4.73;88.72;97837.41;103581;1300;24213;-25
2022/04/09 07:26:50;;;;;;;9.10;3.90;;;;;;;4.58;88.85;97845.65;103580;1300;24374;-25
2022/04/09 07:29:16;;;;;;;5.10;2.20;;;;;;;4.25;90.29;97838.95;103629;1300;24305;-25
2022/04/09 07:31:42;;;;;;;3.50;2.90;;;;;;;4.13;92.10;97840.92;103594;1300;24228;-29
2022/04/09 07:34:08;;;;;;;3.90;2.00;;;;;;;4.28;91.50;97845.67;103571;1300;24335;-25
2022/04/09 07:36:34;;;;;;;12.40;2.50;;;;;;;4.56;90.48;97847.68;103588;1300;24405;-26
2022/04/09 07:39:00;;;;;;;7.90;3.90;;;;;;;4.40;91.20;97848.82;103618;1300;24282;-30
2022/04/09 07:41:25;;;;;;;10.80;5.60;;;;;;;4.68;90.61;97849.54;103527;1301;24217;-25
2022/04/09 07:43:51;;;;;;;14.20;9.10;;;;;;;4.64;89.23;97850.42;103524;1300;22500;-25
2022/04/09 07:46:18;;;;;;;7.60;4.60;;;;;;;4.52;91.16;97854.23;103557;1300;23983;-29
2022/04/09 07:48:43;;;;;;;6.30;3.20;;;;;;;4.94;89.60;97848.59;103474;1300;24309;-29
2022/04/09 07:51:09;;;;;;;5.30;4.60;;;;;;;4.81;89.30;97849.52;103485;1300;23930;-25
2022/04/09 07:53:35;;;;;;;3.20;2.70;;;;;;;5.15;87.89;97842.98;103497;1300;24575;-25
2022/04/09 07:56:00;;;;;;;6.00;5.20;;;;;;;4.58;89.91;97852.65;103545;1300;24280;-25
2022/04/09 07:58:26;;;;;;;16.90;5.40;;;;;;;4.71;90.37;97861.05;103528;1300;24299;-25
2022/04/09 08:00:52;;;;;;;5.70;4.00;;;;;;;4.82;90.02;97864.42;103571;1300;24221;-29
2022/04/09 08:03:18;;;;;;;5.40;3.90;;;;;;;4.85;89.09;97864.44;103537;1300;24434;-29
2022/04/09 08:05:44;;;;;;;11.20;2.90;;;;;;;4.82;88.18;97861.27;103558;1300;22509;-28
2022/04/09 08:08:10;;;;;;;6.50;4.30;;;;;;;4.79;90.13;97868.05;103545;1300;22514;-31
2022/04/09 08:10:39;;;;;;;8.00;4.40;;;;;;;4.73;90.04;97883.13;103536;1300;24317;-25
2022/04/09 08:13:05;;;;;;;6.30;3.90;;;;;;;4.52;90.94;97893.23;103599;1301;23847;-25
2022/04/09 08:15:31;;;;;;;4.60;3.10;;;;;;;5.09;89.67;97899.23;103188;1300;24268;-25
2022/04/09 08:17:58;;;;;;;2.70;2.40;;;;;;;4.81;90.38;97906.73;103533;1300;24304;-26
2022/04/09 08:20:24;;;;;;;4.70;3.90;;;;;;;5.23;88.42;97910.94;103587;1300;22500;-27
2022/04/09 08:22:50;;;;;;;8.30;4.70;;;;;;;5.13;88.04;97911.97;103559;1300;23602;-30
2022/04/09 08:25:17;;;;;;;6.70;5.00;;;;;;;4.90;89.77;97919.59;103537;1300;24229;-31
2022/04/09 08:27:45;;;;;;;10.00;3.80;;;;;;;5.37;87.70;97925.38;103607;1300;24218;-29
2022/04/09 08:30:12;;;;;;;5.10;4.70;;;;;;;5.24;88.43;97927.86;103564;1300;24222;-29
2022/04/09 08:32:37;;;;;;;5.10;3.70;;;;;;;5.67;85.72;97927.17;103553;1300;24368;-25
2022/04/09 08:35:03;;;;;;;4.90;4.50;;;;;;;5.45;85.33;97923.89;103641;1300;24242;-29
2022/04/09 08:37:29;;;;;;;3.40;2.90;;;;;;;5.76;82.35;97935.89;103555;1300;24247;-25
2022/04/09 08:39:55;;;;;;;5.60;2.80;;;;;;;5.68;82.35;97953.29;103574;1300;24298;-29
2022/04/09 08:42:22;;;;;;;4.30;1.80;;;;;;;5.43;82.22;97958.00;103429;1302;24226;-25
2022/04/09 08:44:48;;;;;;;5.20;2.40;;;;;;;5.60;81.46;97973.14;103369;1302;25024;-29
2022/04/09 08:47:15;;;;;;;3.60;2.60;;;;;;;5.37;82.94;97986.45;103548;1300;24419;-31
2022/04/09 08:49:45;;;;;;;9.10;2.50;;;;;;;5.78;82.27;97994.50;103557;1300;24215;-31
2022/04/09 08:52:11;;;;;;;2.00;1.50;;;;;;;5.67;81.80;97996.92;103578;1300;22504;-25
2022/04/09 08:54:37;;;;;;;3.30;2.30;;;;;;;6.01;82.09;97998.23;103514;1300;22515;-25
2022/04/09 08:57:04;;;;;;;10.50;2.40;;;;;;;5.93;82.41;98000.37;103572;1300;24285;-29
2022/04/09 08:59:29;;;;;;;5.30;2.00;;;;;;;6.05;77.89;97990.91;103574;1300;22890;-24
2022/04/09 09:01:55;;;;;;;3.50;1.80;;;;;;;6.51;76.63;97994.48;103582;1300;22768;-28
2022/04/09 09:04:21;;;;;;;4.30;2.50;;;;;;;6.44;74.98;97996.45;103600;1300;24192;-29
2022/04/09 09:06:47;;;;;;;2.50;1.80;;;;;;;6.24;75.79;98008.17;103563;1300;24370;-25
2022/04/09 09:09:19;;;;;;;3.20;1.90;;;;;;;6.39;75.53;98016.02;103509;1299;24212;-26
2022/04/09 09:11:46;;;;;;;3.40;1.90;;;;;;;6.47;75.57;98031.66;103589;1300;22764;-25
2022/04/09 09:14:23;;;;;;;6.80;2.40;;;;;;;6.27;75.72;98041.52;103605;1300;24217;-31
2022/04/09 09:16:49;;;;;;;2.80;1.60;;;;;;;6.38;75.43;98051.30;103545;1300;23820;-25
2022/04/09 09:19:14;;;;;;;1.50;1.00;;;;;;;6.57;74.07;98044.52;103557;1300;24225;-31
2022/04/09 09:21:51;;;;;;;4.10;1.70;;;;;;;6.09;76.38;98037.90;103475;1300;22515;-29
2022/04/09 09:24:17;;;;;;;3.00;1.90;;;;;;;5.99;76.87;98041.68;103577;1300;23838;-31
2022/04/09 09:26:44;;;;;;;5.80;1.70;;;;;;;6.27;75.97;98054.36;103541;1300;23702;-29
2022/04/09 09:29:13;;;;;;;4.40;1.80;;;;;;;5.93;75.47;98055.39;103514;1300;24471;-25
2022/04/09 09:31:41;;;;;;;3.60;1.70;;;;;;;6.00;77.12;98069.21;103510;1300;24249;-27
2022/04/09 09:34:08;;;;;;;3.70;1.70;;;;;;;6.04;77.64;98069.30;103606;1300;24256;-25
2022/04/09 09:36:36;;;;;;;8.30;1.70;;;;;;;6.00;78.10;98072.48;103570;1300;24305;-29
2022/04/09 09:39:03;;;;;;;7.90;2.40;;;;;;;6.01;76.94;98078.29;103611;1300;23874;-29
2022/04/09 09:41:29;;;;;;;3.60;2.00;;;;;;;5.93;78.41;98081.14;103473;1301;23603;-25
2022/04/09 09:44:01;;;;;;;1.80;1.10;;;;;;;6.52;75.85;98085.14;103598;1300;23736;-29
2022/04/09 09:46:27;;;;;;;4.30;1.90;;;;;;;5.83;77.03;98087.23;103586;1300;25375;-25
2022/04/09 09:48:53;;;;;;;4.00;1.70;;;;;;;6.21;75.96;98086.17;103569;1300;24373;-25
2022/04/09 09:51:23;;;;;;;1.80;1.10;;;;;;;6.54;73.44;98087.69;103512;1300;24306;-26
2022/04/09 09:53:49;;;;;;;2.10;1.00;;;;;;;6.56;73.36;98097.66;103613;1300;24342;-23
2022/04/09 09:56:14;;;;;;;0.80;0.40;;;;;;;5.97;74.89;98091.82;103570;1300;24429;-25
2022/04/09 09:58:40;;;;;;;1.50;1.20;;;;;;;6.24;74.16;98090.73;103533;1300;24305;-28
2022/04/09 10:01:07;;;;;;;2.70;1.30;;;;;;;6.75;71.14;98091.82;103569;1300;24222;-25
2022/04/09 10:03:33;;;;;;;3.10;0.80;;;;;;;7.24;69.69;98093.39;103476;1302;24369;-28
2022/04/09 10:05:59;;;;;;;2.60;0.90;;;;;;;7.20;67.53;98102.11;103548;1300;24343;-24
2022/04/09 10:08:25;;;;;;;1.00;0.40;;;;;;;7.05;68.88;98103.60;103576;1300;24193;-24
2022/04/09 10:10:51;;;;;;;1.00;0.50;;;;;;;7.53;67.22;98102.23;103529;1300;24176;-25
2022/04/09 10:13:20;;;;;;;5.20;0.90;;;;;;;7.17;67.85;98114.28;103549;1300;24356;-26
2022/04/09 10:15:49;;;;;;;1.30;1.00;;;;;;;7.16;69.84;98125.16;103550;1300;22512;-30
2022/04/09 10:18:19;;;;;;;3.50;0.70;;;;;;;7.20;65.63;98126.10;103621;1300;25338;-29
2022/04/09 10:20:45;;;;;;;1.60;0.90;;;;;;;6.95;65.96;98126.64;103536;1300;22915;-29
2022/04/09 10:23:13;;;;;;;10.60;1.00;;;;;;;7.59;63.97;98136.91;103589;1300;24289;-26
2022/04/09 10:25:41;;;;;;;2.40;1.00;;;;;;;7.26;65.82;98143.61;103572;1300;24254;-29
2022/04/09 10:28:08;;;;;;;1.30;0.80;;;;;;;7.66;65.07;98139.86;103546;1300;24219;-27
2022/04/09 10:30:39;;;;;;;3.30;1.70;;;;;;;7.63;65.72;98148.27;103572;1300;24199;-27
2022/04/09 10:33:20;;;;;;;5.20;1.00;;;;;;;7.80;63.85;98145.42;103639;1300;24312;-30
2022/04/09 10:35:47;;;;;;;12.80;1.10;;;;;;;8.15;63.02;98149.77;103562;1300;24253;-24
2022/04/09 10:38:13;;;;;;;2.90;1.00;;;;;;;7.89;63.54;98154.34;103582;1300;24222;-28
2022/04/09 10:40:42;;;;;;;1.80;0.90;;;;;;;7.87;62.73;98166.77;103555;1300;24247;-25
2022/04/09 10:43:08;;;;;;;1.50;0.80;;;;;;;7.46;61.57;98172.98;103575;1302;22509;-30
2022/04/09 10:45:55;;;;;;;1.10;0.70;;;;;;;7.24;60.40;98182.19;103573;1302;22742;-28
2022/04/09 10:48:29;;;;;;;5.90;0.80;;;;;;;7.32;63.11;98184.33;103511;1300;24432;-25
2022/04/09 10:50:56;;;;;;;;;;;;;;;7.24;62.74;98176.98;103591;1300;22765;-29
2022/04/09 10:53:23;;;;;;;1.30;0.50;;;;;;;7.17;61.47;98182.19;103548;1301;23614;-24
2022/04/09 10:55:55;;;;;;;2.80;1.00;;;;;;;8.08;57.39;98189.23;103617;1300;23812;-28
2022/04/09 10:58:21;;;;;;;3.90;0.80;;;;;;;7.69;57.34;98185.08;103548;1300;24309;-31
2022/04/09 11:00:47;;;;;;;1.50;0.80;;;;;;;7.62;59.13;98185.51;103606;1302;24246;-29
2022/04/09 11:03:15;;;;;;;3.80;2.30;;;;;;;7.64;57.80;98185.64;103535;1300;24212;-30
2022/04/09 11:05:43;;;;;;;1.90;0.60;;;;;;;7.90;58.19;98189.70;103595;1300;24249;-25
2022/04/09 11:08:13;;;;;;;1.30;0.60;;;;;;;7.29;57.51;98179.90;103590;1300;24220;-24
2022/04/09 11:10:38;;;;;;;5.00;2.00;;;;;;;7.45;58.80;98191.39;103536;1300;23967;-27
2022/04/09 11:13:10;;;;;;;1.60;0.60;;;;;;;7.50;57.68;98194.06;103604;1302;24033;-29
2022/04/09 11:15:37;;;;;;;3.00;0.80;;;;;;;7.40;57.42;98207.35;103231;1302;22846;-25
2022/04/09 11:18:03;;;;;;;33.50;15.60;;;;;;;7.49;59.04;98211.09;103554;1300;24272;-24
2022/04/09 11:20:31;;;;;;;4.30;1.80;;;;;;;8.78;56.04;98214.67;103580;1300;22566;-24
2022/04/09 11:22:56;;;;;;;4.80;2.40;;;;;;;8.86;53.04;98213.84;103611;1300;24331;-25
2022/04/09 11:25:26;;;;;;;8.90;1.30;;;;;;;8.40;54.79;98217.80;103551;1299;24318;-25
2022/04/09 11:27:53;;;;;;;22.20;13.70;;;;;;;8.39;53.45;98222.63;103572;1302;22518;-25